Time;durP1;ratioP1;P1;durP2;ratioP2;P2;SDS_P1;SDS_P2;PMS_P1;PMS_P2;Temp;Humidity;BMP_temperature;BMP_pressure;BME280_temperature;BME280_humidity;BME280_pressure;Samples;Min_cycle;Max_cycle;Signal;HPM_P1;HPM_P2
2023/03/02 00:01:08;;;;;;;;;;;;;;;5.00;90.83;100314.16;3165127;28;19931;-61
2023/03/02 00:02:40;;;;;;;;;;;;;;;4.99;90.73;100310.69;3165038;28;19928;-61
2023/03/02 00:04:14;;;;;;;;;;;;;;;5.02;90.78;100312.38;3164782;28;19997;-61
2023/03/02 00:05:46;;;;;;;;;;;;;;;5.03;90.93;100324.44;3164844;28;19934;-62
2023/03/02 00:07:19;;;;;;;;;;;;;;;5.05;90.77;100322.66;3164947;28;19932;-62
2023/03/02 00:08:51;;;;;;;;;;;;;;;5.07;90.71;100326.06;3164911;28;20396;-63
2023/03/02 00:10:22;;;;;;;;;;;;;;;5.07;90.72;100320.06;3164621;28;20311;-62
2023/03/02 00:11:53;;;;;;;;;;;;;;;5.04;90.87;100315.78;3165086;28;20011;-61
2023/03/02 00:13:25;;;;;;;;;;;;;;;5.03;90.98;100316.69;3154253;28;19928;-62
2023/03/02 00:14:57;;;;;;;;;;;;;;;5.01;90.95;100321.00;3164586;28;19931;-61
2023/03/02 00:16:29;;;;;;;;;;;;;;;4.99;91.19;100317.59;3164636;28;19964;-62
2023/03/02 00:17:59;;;;;;;;;;;;;;;4.98;91.23;100321.03;3164892;28;19928;-62
2023/03/02 00:19:32;;;;;;;;;;;;;;;4.97;91.03;100319.34;3164903;28;19935;-61
2023/03/02 00:21:04;;;;;;;;;;;;;;;4.95;91.12;100301.28;3165078;28;19928;-61
2023/03/02 00:22:35;;;;;;;;;;;;;;;4.97;91.38;100303.88;3164468;28;19928;-62
2023/03/02 00:24:07;;;;;;;;;;;;;;;4.98;91.26;100309.00;3165075;28;19927;-61
2023/03/02 00:25:37;;;;;;;;;;;;;;;5.01;91.29;100310.69;3164723;28;19950;-61
2023/03/02 00:27:09;;;;;;;;;;;;;;;5.02;91.22;100304.63;3164753;28;19993;-61
2023/03/02 00:28:40;;;;;;;;;;;;;;;5.02;91.20;100310.63;3164904;28;19928;-61
2023/03/02 00:30:12;;;;;;;;;;;;;;;5.01;91.17;100308.09;3164941;28;20536;-62
2023/03/02 00:31:44;;;;;;;;;;;;;;;5.00;91.36;100309.84;3173372;28;19927;-61
2023/03/02 00:33:16;;;;;;;;;;;;;;;4.99;91.16;100307.25;3171136;28;20417;-61
2023/03/02 00:34:49;;;;;;;;;;;;;;;4.99;91.18;100305.53;3164916;28;19928;-61
2023/03/02 00:36:20;;;;;;;;;;;;;;;4.98;91.12;100306.41;3152947;28;19971;-61
2023/03/02 00:37:52;;;;;;;;;;;;;;;4.95;90.98;100309.03;3158499;28;19955;-61
2023/03/02 00:39:24;;;;;;;;;;;;;;;4.94;91.13;100307.34;3164830;28;19927;-61
2023/03/02 00:40:55;;;;;;;;;;;;;;;4.97;90.83;100309.88;3164995;28;20038;-61
2023/03/02 00:42:27;;;;;;;;;;;;;;;4.99;91.07;100315.00;3164634;28;19954;-60
2023/03/02 00:43:59;;;;;;;;;;;;;;;5.00;90.75;100316.72;3160836;28;19954;-61
2023/03/02 00:45:30;;;;;;;;;;;;;;;4.99;90.91;100315.00;3154808;28;20224;-61
2023/03/02 00:47:01;;;;;;;;;;;;;;;4.97;90.94;100311.59;3164852;28;19932;-61
2023/03/02 00:48:33;;;;;;;;;;;;;;;4.97;91.16;100309.88;3165533;28;19956;-61
2023/03/02 00:50:06;;;;;;;;;;;;;;;4.99;90.84;100302.09;3165492;28;19981;-61
2023/03/02 00:51:38;;;;;;;;;;;;;;;4.96;90.75;100297.81;3166747;28;19988;-61
2023/03/02 00:53:10;;;;;;;;;;;;;;;4.99;90.63;100302.09;3167334;28;20398;-61
2023/03/02 00:54:42;;;;;;;;;;;;;;;4.94;90.42;100301.28;3164634;28;20323;-60
2023/03/02 00:56:14;;;;;;;;;;;;;;;4.93;90.38;100299.59;3168003;27;20327;-61
2023/03/02 00:57:53;;;;;;;;;;;;;;;4.91;90.58;100294.47;3165932;28;19927;-60
2023/03/02 00:59:27;;;;;;;;;;;;;;;4.92;90.54;100296.16;3154316;28;20023;-60
2023/03/02 01:00:59;;;;;;;;;;;;;;;4.91;90.37;100291.03;3154334;28;19928;-61
2023/03/02 01:02:31;;;;;;;;;;;;;;;4.89;90.34;100295.38;3161918;28;20008;-60
2023/03/02 01:04:02;;;;;;;;;;;;;;;4.89;90.33;100300.53;3166182;28;19932;-60
2023/03/02 01:05:37;;;;;;;;;;;;;;;4.89;90.31;100295.38;3154645;28;20447;-60
2023/03/02 01:07:10;;;;;;;;;;;;;;;4.88;90.18;100289.38;3162971;28;19928;-62
2023/03/02 01:08:41;;;;;;;;;;;;;;;4.90;90.14;100291.91;3166714;28;19935;-62
2023/03/02 01:10:14;;;;;;;;;;;;;;;4.91;90.12;100299.63;3167347;28;20281;-60
2023/03/02 01:11:44;;;;;;;;;;;;;;;4.92;89.91;100295.31;3166823;28;20027;-61
2023/03/02 01:13:17;;;;;;;;;;;;;;;4.91;90.22;100293.59;3159726;28;20462;-60
2023/03/02 01:14:49;;;;;;;;;;;;;;;4.90;89.82;100287.59;3166741;28;19927;-61
2023/03/02 01:16:21;;;;;;;;;;;;;;;4.89;89.96;100291.06;3166744;28;19938;-61
2023/03/02 01:17:51;;;;;;;;;;;;;;;4.90;89.82;100284.16;3165919;28;19931;-61
2023/03/02 01:19:23;;;;;;;;;;;;;;;4.88;90.01;100289.38;3166147;28;20455;-60
2023/03/02 01:21:01;;;;;;;;;;;;;;;4.86;89.74;100287.69;3165605;28;19928;-60
2023/03/02 01:22:33;;;;;;;;;;;;;;;4.86;89.78;100285.94;3165678;28;19970;-61
2023/03/02 01:24:05;;;;;;;;;;;;;;;4.89;89.89;100292.78;3166037;28;19932;-61
2023/03/02 01:25:37;;;;;;;;;;;;;;;4.87;89.68;100284.22;3165846;28;19927;-61
2023/03/02 01:27:09;;;;;;;;;;;;;;;4.86;89.67;100279.94;3166018;28;20011;-62
2023/03/02 01:28:41;;;;;;;;;;;;;;;4.85;89.71;100283.38;3165786;28;19927;-62
2023/03/02 01:30:13;;;;;;;;;;;;;;;4.84;89.65;100277.34;3165761;28;20002;-62
2023/03/02 01:31:44;;;;;;;;;;;;;;;4.85;89.75;100285.94;3171370;28;19928;-62
2023/03/02 01:33:15;;;;;;;;;;;;;;;4.86;89.71;100279.94;3166386;28;20014;-61
2023/03/02 01:34:47;;;;;;;;;;;;;;;4.86;89.60;100280.78;3165952;28;19935;-61
2023/03/02 01:36:20;;;;;;;;;;;;;;;4.88;89.48;100285.91;3165403;28;19934;-61
2023/03/02 01:37:52;;;;;;;;;;;;;;;4.89;89.45;100279.88;3168879;28;19939;-61
2023/03/02 01:39:23;;;;;;;;;;;;;;;4.87;89.46;100281.63;3171375;28;19923;-61
2023/03/02 01:40:54;;;;;;;;;;;;;;;4.87;89.41;100276.47;3171127;28;19928;-61
2023/03/02 01:42:25;;;;;;;;;;;;;;;4.90;89.44;100272.09;3171053;28;19980;-61
2023/03/02 01:43:57;;;;;;;;;;;;;;;4.91;89.48;100273.84;3167755;28;19940;-61
2023/03/02 01:45:43;;;;;;;;;;;;;;;4.93;89.44;100272.06;3171147;28;19924;-61
2023/03/02 01:47:18;;;;;;;;;;;;;;;4.94;89.23;100270.31;3171039;28;19927;-61
2023/03/02 01:48:52;;;;;;;;;;;;;;;4.92;89.19;100265.19;3171099;28;19924;-60
2023/03/02 01:50:24;;;;;;;;;;;;;;;4.91;89.29;100266.09;3170448;28;19996;-61
2023/03/02 01:51:57;;;;;;;;;;;;;;;4.91;89.17;100265.22;3171656;28;19928;-61
2023/03/02 01:53:31;;;;;;;;;;;;;;;4.88;89.04;100263.56;3171030;28;19930;-61
2023/03/02 01:55:05;;;;;;;;;;;;;;;4.86;89.07;100275.63;3171080;28;19927;-61
2023/03/02 01:56:38;;;;;;;;;;;;;;;4.84;89.01;100266.19;3171003;28;19971;-61
2023/03/02 01:58:12;;;;;;;;;;;;;;;4.82;89.06;100262.78;3170345;28;19924;-61
2023/03/02 01:59:44;;;;;;;;;;;;;;;4.82;89.02;100258.44;3170944;28;20019;-61
2023/03/02 02:01:16;;;;;;;;;;;;;;;4.83;89.06;100260.19;3171210;28;19968;-60
2023/03/02 02:02:47;;;;;;;;;;;;;;;4.86;89.05;100261.88;3170668;28;19976;-60
2023/03/02 02:04:19;;;;;;;;;;;;;;;4.86;89.04;100254.13;3171020;28;19924;-61
2023/03/02 02:05:57;;;;;;;;;;;;;;;4.86;89.12;100249.81;3170111;28;19927;-61
2023/03/02 02:07:31;;;;;;;;;;;;;;;4.85;88.91;100253.28;3170599;28;19923;-61
2023/03/02 02:09:03;;;;;;;;;;;;;;;4.87;88.89;100250.66;3170870;28;20018;-61
2023/03/02 02:10:36;;;;;;;;;;;;;;;4.85;88.96;100255.84;3170661;28;19927;-61
2023/03/02 02:12:12;;;;;;;;;;;;;;;4.85;88.87;100255.84;3170810;28;19935;-61
2023/03/02 02:13:44;;;;;;;;;;;;;;;4.87;88.76;100258.41;3170264;28;19974;-61
2023/03/02 02:15:16;;;;;;;;;;;;;;;4.86;88.86;100259.28;3170926;28;19927;-61
2023/03/02 02:16:48;;;;;;;;;;;;;;;4.89;88.90;100264.41;3099932;28;1991211;-61
2023/03/02 02:18:19;;;;;;;;;;;;;;;4.87;88.58;100269.56;3171436;28;19924;-61
2023/03/02 02:19:56;;;;;;;;;;;;;;;4.85;88.75;100267.88;3170492;28;19934;-61
2023/03/02 02:21:28;;;;;;;;;;;;;;;4.83;88.71;100264.50;3171140;28;20024;-61
2023/03/02 02:23:05;;;;;;;;;;;;;;;4.83;88.70;100255.03;3171436;28;19931;-61
2023/03/02 02:24:40;;;;;;;;;;;;;;;4.84;88.73;100261.03;3158965;28;20653;-61
2023/03/02 02:26:17;;;;;;;;;;;;;;;4.83;88.72;100262.75;3164527;28;19939;-61
2023/03/02 02:27:47;;;;;;;;;;;;;;;4.84;88.70;100255.88;3170626;28;19924;-62
2023/03/02 02:29:21;;;;;;;;;;;;;;;4.85;88.66;100254.97;3171323;28;19996;-61
2023/03/02 02:31:05;;;;;;;;;;;;;;;4.87;88.60;100248.94;3175689;27;19927;-61
2023/03/02 02:32:38;;;;;;;;;;;;;;;4.87;88.57;100241.19;3166355;28;19953;-61
2023/03/02 02:34:13;;;;;;;;;;;;;;;4.89;88.57;100243.75;3171040;28;19924;-61
2023/03/02 02:35:45;;;;;;;;;;;;;;;4.90;88.49;100243.72;3170370;28;19927;-61
2023/03/02 02:37:20;;;;;;;;;;;;;;;4.89;88.49;100244.59;3171297;28;19935;-61
2023/03/02 02:38:54;;;;;;;;;;;;;;;4.89;88.47;100243.75;3171008;28;19931;-61
2023/03/02 02:40:40;;;;;;;;;;;;;;;4.88;88.31;100244.63;3170570;28;19931;-61
2023/03/02 02:42:14;;;;;;;;;;;;;;;4.89;88.39;100233.44;3170647;28;19935;-61
2023/03/02 02:43:46;;;;;;;;;;;;;;;4.90;88.23;100237.72;3169654;28;19985;-61
2023/03/02 02:45:19;;;;;;;;;;;;;;;4.89;88.31;100236.88;3169232;28;19936;-61
2023/03/02 02:46:51;;;;;;;;;;;;;;;4.87;88.19;100237.75;3170946;28;19967;-61
2023/03/02 02:48:23;;;;;;;;;;;;;;;4.87;88.23;100236.03;3175073;27;19923;-61
2023/03/02 02:49:55;;;;;;;;;;;;;;;4.88;88.09;100237.75;3170474;28;19984;-61
2023/03/02 02:51:28;;;;;;;;;;;;;;;4.89;88.05;100231.69;3170580;28;20320;-61
2023/03/02 02:53:02;;;;;;;;;;;;;;;4.91;88.14;100229.97;3170666;28;19959;-61
2023/03/02 02:54:35;;;;;;;;;;;;;;;4.92;87.97;100231.66;3170671;28;19927;-62
2023/03/02 02:56:08;;;;;;;;;;;;;;;4.94;88.03;100236.78;3170944;28;19928;-62
2023/03/02 02:57:40;;;;;;;;;;;;;;;4.91;87.85;100231.66;3170200;28;19924;-61
2023/03/02 02:59:15;;;;;;;;;;;;;;;4.89;88.05;100236.88;3171045;28;20060;-61
2023/03/02 03:00:45;;;;;;;;;;;;;;;4.90;87.92;100227.38;3170664;28;19928;-61
2023/03/02 03:02:18;;;;;;;;;;;;;;;4.90;87.84;100232.53;3170643;28;19976;-60
2023/03/02 03:03:51;;;;;;;;;;;;;;;4.87;87.68;100223.13;3170362;28;19970;-60
2023/03/02 03:05:23;;;;;;;;;;;;;;;4.87;87.65;100230.00;3170155;28;20500;-60
2023/03/02 03:06:56;;;;;;;;;;;;;;;4.87;87.71;100235.19;3170809;28;20361;-60
2023/03/02 03:08:54;;;;;;;;;;;;;;;4.86;87.67;100236.06;3170684;28;19924;-60
2023/03/02 03:10:28;;;;;;;;;;;;;;;4.86;87.65;100231.75;3156751;28;20485;-60
2023/03/02 03:12:01;;;;;;;;;;;;;;;4.87;87.61;100237.75;3169778;28;19924;-60
2023/03/02 03:13:34;;;;;;;;;;;;;;;4.86;87.64;100233.47;3163970;28;20054;-60
2023/03/02 03:15:06;;;;;;;;;;;;;;;4.83;87.49;100230.94;3170747;28;19930;-61
2023/03/02 03:16:39;;;;;;;;;;;;;;;4.83;87.54;100233.53;3166362;28;20357;-61
2023/03/02 03:18:12;;;;;;;;;;;;;;;4.82;87.58;100234.38;3170603;28;20033;-61
2023/03/02 03:19:45;;;;;;;;;;;;;;;4.79;87.51;100233.56;3169579;28;20403;-61
2023/03/02 03:21:17;;;;;;;;;;;;;;;4.79;87.68;100228.41;3170312;28;19935;-61
2023/03/02 03:22:48;;;;;;;;;;;;;;;4.81;87.37;100233.53;3170304;28;19924;-61
2023/03/02 03:24:19;;;;;;;;;;;;;;;4.82;87.54;100222.31;3170089;28;20336;-61
2023/03/02 03:25:51;;;;;;;;;;;;;;;4.83;87.68;100218.03;3161901;28;19927;-61
2023/03/02 03:27:23;;;;;;;;;;;;;;;4.84;87.55;100220.59;3157308;28;19924;-61
2023/03/02 03:28:56;;;;;;;;;;;;;;;4.80;87.63;100216.34;3157568;28;19975;-61
2023/03/02 03:30:27;;;;;;;;;;;;;;;4.80;87.54;100221.53;3162568;27;20326;-61
2023/03/02 03:31:59;;;;;;;;;;;;;;;4.84;87.56;100222.31;3178235;27;20327;-63
2023/03/02 03:33:33;;;;;;;;;;;;;;;4.86;87.50;100218.00;3167605;28;20405;-61
2023/03/02 03:35:09;;;;;;;;;;;;;;;4.90;87.58;100210.16;3169503;28;19924;-61
2023/03/02 03:36:42;;;;;;;;;;;;;;;4.91;87.66;100211.91;3169599;28;20427;-61
2023/03/02 03:38:14;;;;;;;;;;;;;;;4.93;87.55;100217.03;3170364;28;19932;-61
2023/03/02 03:39:46;;;;;;;;;;;;;;;4.95;87.73;100220.44;3170344;28;19963;-62
2023/03/02 03:41:16;;;;;;;;;;;;;;;4.97;87.73;100222.13;3170103;28;19967;-62
2023/03/02 03:42:51;;;;;;;;;;;;;;;4.99;87.48;100232.41;3170157;28;19924;-64
2023/03/02 03:44:25;;;;;;;;;;;;;;;4.98;87.41;100225.53;3171648;27;19931;-63
2023/03/02 03:45:57;;;;;;;;;;;;;;;4.97;87.25;100236.75;3157798;28;20012;-63
2023/03/02 03:47:29;;;;;;;;;;;;;;;4.95;87.21;100228.19;3157601;28;19935;-66
2023/03/02 03:49:01;;;;;;;;;;;;;;;4.94;87.21;100236.78;3159551;28;19943;-67
2023/03/02 03:50:32;;;;;;;;;;;;;;;4.91;87.05;100237.69;3157751;28;19924;-67
2023/03/02 03:52:04;;;;;;;;;;;;;;;4.90;87.17;100240.28;3157672;28;19924;-67
2023/03/02 03:53:36;;;;;;;;;;;;;;;4.90;87.19;100235.13;3157677;28;19935;-67
2023/03/02 03:55:08;;;;;;;;;;;;;;;4.91;87.15;100236.81;3157829;28;19928;-67
2023/03/02 03:56:40;;;;;;;;;;;;;;;4.92;87.21;100241.97;3157231;28;19924;-67
2023/03/02 03:58:12;;;;;;;;;;;;;;;4.92;87.34;100241.97;3157880;28;20424;-67
2023/03/02 03:59:46;;;;;;;;;;;;;;;4.92;87.24;100235.97;3157647;28;19928;-67
2023/03/02 04:01:17;;;;;;;;;;;;;;;4.92;87.31;100238.56;3157879;28;19977;-66
2023/03/02 04:02:49;;;;;;;;;;;;;;;4.94;87.42;100239.34;3160091;28;20368;-67
2023/03/02 04:04:22;;;;;;;;;;;;;;;4.94;87.26;100237.66;3156942;28;19958;-68
2023/03/02 04:05:54;;;;;;;;;;;;;;;4.94;87.42;100235.06;3157762;28;19928;-67
2023/03/02 04:07:25;;;;;;;;;;;;;;;4.96;87.35;100229.88;3157452;28;19932;-67
2023/03/02 04:08:56;;;;;;;;;;;;;;;4.95;87.50;100238.50;3157947;28;19939;-67
2023/03/02 04:10:29;;;;;;;;;;;;;;;4.94;87.56;100240.22;3168734;28;19931;-66
2023/03/02 04:12:01;;;;;;;;;;;;;;;4.96;87.50;100240.19;3169696;28;19931;-67
2023/03/02 04:13:33;;;;;;;;;;;;;;;4.96;87.54;100237.63;3169890;28;20018;-66
2023/03/02 04:15:07;;;;;;;;;;;;;;;4.99;87.60;100235.84;3170462;28;19928;-66
2023/03/02 04:16:39;;;;;;;;;;;;;;;5.00;87.53;100226.38;3169514;28;19932;-65
2023/03/02 04:18:11;;;;;;;;;;;;;;;5.03;87.54;100218.59;3169848;28;19963;-66
2023/03/02 04:19:44;;;;;;;;;;;;;;;5.02;87.47;100215.13;3169853;28;19924;-66
2023/03/02 04:21:15;;;;;;;;;;;;;;;5.02;87.58;100211.72;3170282;28;19977;-65
2023/03/02 04:22:48;;;;;;;;;;;;;;;5.01;87.48;100212.59;3158277;28;20005;-66
2023/03/02 04:24:21;;;;;;;;;;;;;;;5.02;87.48;100214.28;3159903;28;19975;-66
2023/03/02 04:25:52;;;;;;;;;;;;;;;5.05;87.59;100210.81;3164891;28;19928;-62
2023/03/02 04:27:24;;;;;;;;;;;;;;;5.05;87.38;100216.81;3171641;28;19924;-62
2023/03/02 04:28:54;;;;;;;;;;;;;;;5.08;87.54;100224.50;3160104;28;19927;-62
2023/03/02 04:30:27;;;;;;;;;;;;;;;5.09;87.43;100227.94;3164017;27;19932;-62
2023/03/02 04:31:59;;;;;;;;;;;;;;;5.09;87.29;100228.81;3165452;27;19936;-62
2023/03/02 04:33:31;;;;;;;;;;;;;;;5.11;87.24;100226.19;3164035;28;20011;-63
2023/03/02 04:35:02;;;;;;;;;;;;;;;5.12;87.04;100230.50;3159876;28;19931;-63
2023/03/02 04:36:35;;;;;;;;;;;;;;;5.13;87.15;100240.78;3159624;28;20425;-62
2023/03/02 04:38:07;;;;;;;;;;;;;;;5.13;87.20;100247.69;3160119;28;19924;-61
2023/03/02 04:39:38;;;;;;;;;;;;;;;5.10;87.16;100243.44;3159647;28;20340;-61
2023/03/02 04:41:10;;;;;;;;;;;;;;;5.07;87.08;100250.38;3159867;28;19997;-62
2023/03/02 04:42:43;;;;;;;;;;;;;;;5.05;86.92;100247.78;3159999;28;19924;-61
2023/03/02 04:44:15;;;;;;;;;;;;;;;5.02;86.88;100256.44;3159518;28;19928;-63
2023/03/02 04:45:48;;;;;;;;;;;;;;;4.96;87.03;100255.69;3160281;28;20344;-61
2023/03/02 04:47:20;;;;;;;;;;;;;;;4.92;87.13;100254.88;3159528;28;19924;-62
2023/03/02 04:48:51;;;;;;;;;;;;;;;4.91;87.01;100250.59;3159711;28;19928;-62
2023/03/02 04:50:23;;;;;;;;;;;;;;;4.92;87.08;100247.13;3159733;28;19936;-64
2023/03/02 04:51:54;;;;;;;;;;;;;;;4.93;87.06;100246.25;3159307;28;19928;-62
2023/03/02 04:53:25;;;;;;;;;;;;;;;4.94;87.11;100257.41;3158854;28;19932;-63
2023/03/02 04:54:57;;;;;;;;;;;;;;;4.93;87.12;100254.00;3160120;28;19960;-63
2023/03/02 04:56:29;;;;;;;;;;;;;;;4.95;87.16;100251.41;3159567;28;19924;-63
2023/03/02 04:58:00;;;;;;;;;;;;;;;4.95;87.18;100248.81;3161153;28;19990;-62
2023/03/02 04:59:31;;;;;;;;;;;;;;;4.94;87.08;100252.25;3160045;28;19924;-62
2023/03/02 05:01:06;;;;;;;;;;;;;;;4.90;87.04;100256.63;3159961;28;20038;-62
2023/03/02 05:02:37;;;;;;;;;;;;;;;4.90;86.90;100260.94;3159547;28;20366;-62
2023/03/02 05:04:09;;;;;;;;;;;;;;;4.89;86.94;100254.94;3159654;28;19924;-63
2023/03/02 05:05:40;;;;;;;;;;;;;;;4.90;87.01;100255.78;3160275;28;19932;-63
2023/03/02 05:07:11;;;;;;;;;;;;;;;4.91;87.14;100252.31;3159517;28;20401;-63
2023/03/02 05:08:43;;;;;;;;;;;;;;;4.92;87.03;100256.63;3159603;28;20085;-62
2023/03/02 05:10:15;;;;;;;;;;;;;;;4.91;87.05;100252.31;3158839;28;20145;-62
2023/03/02 05:11:46;;;;;;;;;;;;;;;4.92;87.00;100254.88;3163359;28;19934;-62
2023/03/02 05:13:18;;;;;;;;;;;;;;;4.93;87.11;100263.47;3172099;28;19977;-62
2023/03/02 05:14:50;;;;;;;;;;;;;;;4.93;87.07;100251.41;3171961;28;19924;-62
2023/03/02 05:16:23;;;;;;;;;;;;;;;4.95;87.03;100261.72;3172072;28;20002;-61
2023/03/02 05:17:55;;;;;;;;;;;;;;;4.94;86.98;100262.59;3172503;28;19989;-63
2023/03/02 05:19:27;;;;;;;;;;;;;;;4.91;86.98;100253.19;3172130;28;19931;-64
2023/03/02 05:20:58;;;;;;;;;;;;;;;4.91;86.81;100258.34;3172178;28;19988;-64
2023/03/02 05:22:33;;;;;;;;;;;;;;;4.90;86.92;100272.09;3171801;28;19924;-63
2023/03/02 05:24:04;;;;;;;;;;;;;;;4.87;86.96;100269.56;3160528;28;20521;-63
2023/03/02 05:25:46;;;;;;;;;;;;;;;4.89;87.05;100272.16;3159686;28;19928;-61
2023/03/02 05:27:18;;;;;;;;;;;;;;;4.92;86.82;100265.19;3159161;28;19932;-64
2023/03/02 05:28:49;;;;;;;;;;;;;;;4.94;86.89;100270.31;3168412;28;19981;-65
2023/03/02 05:30:22;;;;;;;;;;;;;;;4.96;86.78;100266.84;3171036;28;19988;-63
2023/03/02 05:31:55;;;;;;;;;;;;;;;4.97;86.76;100267.72;3174631;27;19924;-64
2023/03/02 05:33:25;;;;;;;;;;;;;;;4.97;86.58;100280.63;3176560;27;19988;-63
2023/03/02 05:34:57;;;;;;;;;;;;;;;4.95;86.49;100280.66;3161399;28;20038;-61
2023/03/02 05:36:28;;;;;;;;;;;;;;;4.91;86.44;100281.56;3164183;28;19928;-61
2023/03/02 05:38:00;;;;;;;;;;;;;;;4.87;86.31;100281.63;3172148;28;19923;-62
2023/03/02 05:39:31;;;;;;;;;;;;;;;4.86;86.33;100273.03;3172026;28;19981;-60
2023/03/02 05:41:02;;;;;;;;;;;;;;;4.88;86.41;100280.75;3171764;28;19925;-61
2023/03/02 05:42:34;;;;;;;;;;;;;;;4.87;86.41;100281.63;3170342;28;20391;-62
2023/03/02 05:44:08;;;;;;;;;;;;;;;4.86;86.41;100279.94;3171348;28;19932;-62
2023/03/02 05:45:40;;;;;;;;;;;;;;;4.84;86.40;100282.53;3171253;28;20377;-63
2023/03/02 05:47:13;;;;;;;;;;;;;;;4.86;86.34;100279.94;3160054;28;20412;-65
2023/03/02 05:48:44;;;;;;;;;;;;;;;4.84;86.39;100276.50;3148913;28;20688;-65
2023/03/02 05:50:15;;;;;;;;;;;;;;;4.87;86.43;100284.22;3156581;28;19927;-61
2023/03/02 05:51:47;;;;;;;;;;;;;;;4.87;86.45;100281.63;3151269;28;20426;-63
2023/03/02 05:53:19;;;;;;;;;;;;;;;4.87;86.45;100285.06;3154058;28;20004;-65
2023/03/02 05:54:51;;;;;;;;;;;;;;;4.87;86.38;100279.03;3161976;28;19928;-64
2023/03/02 05:56:22;;;;;;;;;;;;;;;4.89;86.45;100287.63;3161760;28;20014;-64
2023/03/02 05:57:54;;;;;;;;;;;;;;;4.91;86.40;100289.31;3161901;28;19977;-63
2023/03/02 05:59:26;;;;;;;;;;;;;;;4.91;86.52;100296.19;3162218;28;19927;-66
2023/03/02 06:00:58;;;;;;;;;;;;;;;4.88;86.42;100288.47;3162017;28;20505;-66
2023/03/02 06:02:31;;;;;;;;;;;;;;;4.88;86.44;100291.06;3161557;28;19928;-64
2023/03/02 06:04:02;;;;;;;;;;;;;;;4.88;86.47;100285.91;3161782;28;20023;-65
2023/03/02 06:05:33;;;;;;;;;;;;;;;4.90;86.32;100289.31;3161964;28;19932;-66
2023/03/02 06:07:05;;;;;;;;;;;;;;;4.91;86.54;100293.59;3162689;28;19927;-65
2023/03/02 06:08:39;;;;;;;;;;;;;;;4.91;86.47;100289.31;3159628;28;19936;-66
2023/03/02 06:10:12;;;;;;;;;;;;;;;4.93;86.36;100286.69;3161817;28;19928;-65
2023/03/02 06:11:43;;;;;;;;;;;;;;;4.95;86.33;100287.53;3161888;28;19970;-66
2023/03/02 06:13:15;;;;;;;;;;;;;;;4.96;86.46;100287.50;3150995;28;20533;-65
2023/03/02 06:14:47;;;;;;;;;;;;;;;4.98;86.38;100290.94;3160987;28;19931;-64
2023/03/02 06:16:18;;;;;;;;;;;;;;;4.99;86.25;100284.88;3161451;28;19931;-67
2023/03/02 06:17:52;;;;;;;;;;;;;;;4.99;86.41;100295.19;3161603;28;20029;-68
2023/03/02 06:19:23;;;;;;;;;;;;;;;4.97;86.24;100294.38;3161734;28;19931;-68
2023/03/02 06:20:55;;;;;;;;;;;;;;;4.99;86.34;100294.34;3161108;28;19927;-64
2023/03/02 06:22:27;;;;;;;;;;;;;;;4.98;86.22;100301.25;3161629;28;19927;-62
2023/03/02 06:23:59;;;;;;;;;;;;;;;5.00;86.26;100298.66;3152862;28;20027;-64
2023/03/02 06:25:31;;;;;;;;;;;;;;;5.02;86.32;100302.06;3150790;28;20138;-66
2023/03/02 06:27:02;;;;;;;;;;;;;;;5.01;86.44;100302.94;3160778;28;19990;-64
2023/03/02 06:28:34;;;;;;;;;;;;;;;5.01;86.44;100308.09;3161979;28;19980;-64
2023/03/02 06:30:06;;;;;;;;;;;;;;;5.02;86.41;100308.06;3159697;28;20040;-65
2023/03/02 06:31:37;;;;;;;;;;;;;;;5.02;86.28;100302.06;3164554;27;19965;-63
2023/03/02 06:33:10;;;;;;;;;;;;;;;5.07;86.20;100314.91;3162251;28;19963;-64
2023/03/02 06:34:42;;;;;;;;;;;;;;;5.08;86.24;100304.53;3158809;28;20702;-65
2023/03/02 06:36:15;;;;;;;;;;;;;;;5.09;86.21;100310.56;3148443;28;19928;-64
2023/03/02 06:37:47;;;;;;;;;;;;;;;5.10;86.49;100314.84;3148397;28;20360;-65
2023/03/02 06:39:19;;;;;;;;;;;;;;;5.12;86.46;100310.53;3152552;28;19928;-65
2023/03/02 06:40:51;;;;;;;;;;;;;;;5.13;86.40;100312.22;3160948;28;19935;-64
2023/03/02 06:42:22;;;;;;;;;;;;;;;5.12;86.18;100311.38;3161972;28;19934;-67
2023/03/02 06:43:56;;;;;;;;;;;;;;;5.13;86.31;100317.41;3159771;28;20465;-65
2023/03/02 06:45:28;;;;;;;;;;;;;;;5.14;86.33;100313.94;3148300;28;19981;-70
2023/03/02 06:47:00;;;;;;;;;;;;;;;5.13;86.17;100318.25;3148258;28;19928;-70
2023/03/02 06:48:33;;;;;;;;;;;;;;;5.12;86.27;100319.13;3155774;28;20026;-65
2023/03/02 06:50:04;;;;;;;;;;;;;;;5.12;86.26;100324.28;3161802;28;20327;-70
2023/03/02 06:51:35;;;;;;;;;;;;;;;5.14;86.18;100322.53;3162399;28;19932;-67
2023/03/02 06:53:07;;;;;;;;;;;;;;;5.12;86.16;100313.97;3149338;28;20889;-66
2023/03/02 06:54:39;;;;;;;;;;;;;;;5.13;86.19;100320.81;3154767;28;20197;-64
2023/03/02 06:56:10;;;;;;;;;;;;;;;5.14;86.14;100317.34;3161300;28;19928;-65
2023/03/02 06:57:41;;;;;;;;;;;;;;;5.13;86.27;100310.50;3162147;28;20365;-67
2023/03/02 06:59:13;;;;;;;;;;;;;;;5.13;86.18;100317.41;3158131;28;19935;-66
2023/03/02 07:00:44;;;;;;;;;;;;;;;5.12;86.00;100320.88;3151674;27;20024;-65
2023/03/02 07:02:16;;;;;;;;;;;;;;;5.08;86.37;100317.44;3161179;28;20535;-65
2023/03/02 07:03:49;;;;;;;;;;;;;;;5.08;86.09;100314.00;3162032;28;20026;-68
2023/03/02 07:05:21;;;;;;;;;;;;;;;5.07;86.10;100307.16;3160776;28;19928;-69
2023/03/02 07:06:53;;;;;;;;;;;;;;;5.08;86.34;100322.59;3153002;28;20553;-68
2023/03/02 07:08:24;;;;;;;;;;;;;;;5.09;86.44;100320.88;3155479;28;19927;-70
2023/03/02 07:09:55;;;;;;;;;;;;;;;5.10;86.43;100320.03;3161904;28;20157;-68
2023/03/02 07:11:27;;;;;;;;;;;;;;;5.13;86.56;100317.41;3152283;28;20332;-66
2023/03/02 07:12:59;;;;;;;;;;;;;;;5.17;86.49;100316.47;3160749;28;20465;-67
2023/03/02 07:14:30;;;;;;;;;;;;;;;5.19;86.38;100319.88;3159734;28;20412;-67
2023/03/02 07:16:05;;;;;;;;;;;;;;;5.21;86.35;100319.00;3164667;28;20000;-68
2023/03/02 07:17:37;;;;;;;;;;;;;;;5.21;86.30;100324.16;3162160;28;20345;-66
2023/03/02 07:19:12;;;;;;;;;;;;;;;5.21;86.31;100325.88;3165358;28;19928;-66
2023/03/02 07:20:44;;;;;;;;;;;;;;;5.20;86.40;100319.84;3158393;28;19940;-66
2023/03/02 07:22:15;;;;;;;;;;;;;;;5.22;86.35;100325.00;3158163;28;19928;-63
2023/03/02 07:23:47;;;;;;;;;;;;;;;5.22;86.32;100325.84;3164959;28;19928;-64
2023/03/02 07:25:19;;;;;;;;;;;;;;;5.21;86.50;100320.72;3154982;28;19932;-63
2023/03/02 07:26:50;;;;;;;;;;;;;;;5.20;86.54;100331.91;3160477;28;20732;-65
2023/03/02 07:28:23;;;;;;;;;;;;;;;5.19;86.57;100325.91;3165011;28;19928;-62
2023/03/02 07:29:53;;;;;;;;;;;;;;;5.19;86.60;100327.63;3164831;28;20030;-64
2023/03/02 07:31:25;;;;;;;;;;;;;;;5.16;86.47;100320.78;3164757;28;20257;-64
2023/03/02 07:32:57;;;;;;;;;;;;;;;5.17;86.42;100319.88;3164909;28;19942;-62
2023/03/02 07:34:30;;;;;;;;;;;;;;;5.20;86.48;100322.44;3164830;28;19960;-62
2023/03/02 07:36:02;;;;;;;;;;;;;;;5.23;86.53;100324.13;3159289;28;20432;-64
2023/03/02 07:37:34;;;;;;;;;;;;;;;5.24;86.52;100331.84;3152848;28;20015;-63
2023/03/02 07:39:06;;;;;;;;;;;;;;;5.26;86.43;100326.66;3152214;28;20099;-62
2023/03/02 07:40:40;;;;;;;;;;;;;;;5.27;86.53;100328.38;3161418;28;20418;-63
2023/03/02 07:42:11;;;;;;;;;;;;;;;5.28;86.56;100327.50;3164165;28;19954;-63
2023/03/02 07:43:43;;;;;;;;;;;;;;;5.28;86.41;100324.91;3165248;28;19976;-63
2023/03/02 07:45:19;;;;;;;;;;;;;;;5.29;86.39;100333.50;3165144;28;19927;-63
2023/03/02 07:46:50;;;;;;;;;;;;;;;5.29;86.40;100330.91;3164841;28;20023;-63
2023/03/02 07:48:22;;;;;;;;;;;;;;;5.28;86.48;100335.25;3164792;28;20592;-63
2023/03/02 07:49:55;;;;;;;;;;;;;;;5.29;86.38;100330.91;3160995;28;20064;-64
2023/03/02 07:51:27;;;;;;;;;;;;;;;5.28;86.58;100336.97;3156574;28;19979;-64
2023/03/02 07:52:59;;;;;;;;;;;;;;;5.29;86.42;100336.09;3158086;28;19934;-66
2023/03/02 07:54:31;;;;;;;;;;;;;;;5.28;86.57;100334.38;3156532;28;20325;-61
2023/03/02 07:56:06;;;;;;;;;;;;;;;5.25;86.45;100338.72;3154792;28;20474;-62
2023/03/02 07:57:38;;;;;;;;;;;;;;;5.23;86.57;100335.31;3156728;28;20557;-61
2023/03/02 07:59:11;;;;;;;;;;;;;;;5.22;86.56;100335.34;3157646;28;19932;-64
2023/03/02 08:00:42;;;;;;;;;;;;;;;5.21;86.61;100338.78;3157976;28;20369;-63
2023/03/02 08:02:15;;;;;;;;;;;;;;;5.19;86.62;100336.22;3155307;28;20485;-64